Terminal Aerodrome Forecast
Issued by NWS Cleveland, OH

Home | Current Version | Previous Version | Graphics & Text | Print | Product List | Glossary On
Versions: 1 2 3 4 5 6 7 8 9 10 11 12 13 14 15 16 17 18 19 20 21 22
000
FTUS41 KCLE 022300
TAFMFD
TAF
KMFD 022334Z 0300/0324 15003KT P6SM BKN200
     FM031500 14010KT 4SM -SNPL OVC040
     FM031700 16010KT 3SM -FZRAPL BR BKN015 OVC030
     FM031900 20015KT 2SM -RA BR BKN005 OVC015 WS020/22040KT=

USA.gov is the U.S. government's official web portal to all federal, state and local government web resources and services.